createdAt,value
2018-04-28T00:00:56.897Z,998.97
2018-04-28T00:01:56.882Z,998.99
2018-04-28T00:02:56.870Z,998.96
2018-04-28T00:03:56.854Z,998.99
2018-04-28T00:04:56.835Z,999.01
2018-04-28T00:05:56.820Z,999.01
2018-04-28T00:06:56.806Z,999.06
2018-04-28T00:07:56.870Z,998.99
2018-04-28T00:08:56.777Z,998.98
2018-04-28T00:09:56.760Z,998.99
2018-04-28T00:10:56.745Z,998.98
2018-04-28T00:11:56.730Z,999.03
2018-04-28T00:12:56.713Z,998.98
2018-04-28T00:13:56.698Z,999
2018-04-28T00:14:56.681Z,999.01
2018-04-28T00:15:56.666Z,998.99
2018-04-28T00:16:56.651Z,999
2018-04-28T00:17:56.636Z,998.99
2018-04-28T00:18:56.624Z,998.94
2018-04-28T00:19:56.609Z,998.97
2018-04-28T00:20:56.590Z,999
2018-04-28T00:21:56.574Z,999.01
2018-04-28T00:22:56.559Z,999.04
2018-04-28T00:23:56.543Z,998.99
2018-04-28T00:24:56.527Z,998.98
2018-04-28T00:25:56.515Z,999
2018-04-28T00:26:56.496Z,998.98
2018-04-28T00:27:56.483Z,998.96
2018-04-28T00:28:56.464Z,998.94
2018-04-28T00:29:56.449Z,998.99
2018-04-28T00:30:56.434Z,998.99
2018-04-28T00:31:56.425Z,999.04
2018-04-28T00:32:56.402Z,999.01
2018-04-28T00:33:56.387Z,999.01
2018-04-28T00:34:56.373Z,999.04
2018-04-28T00:35:56.356Z,999.03
2018-04-28T00:36:56.340Z,999.04
2018-04-28T00:37:56.324Z,999.02
2018-04-28T00:38:56.309Z,999.02
2018-04-28T00:39:56.297Z,999.06
2018-04-28T00:40:56.279Z,999.06
2018-04-28T00:41:56.263Z,999.08
2018-04-28T00:42:56.248Z,999.04
2018-04-28T00:43:56.233Z,999.09
2018-04-28T00:44:56.216Z,999.09
2018-04-28T00:45:56.200Z,999.01
2018-04-28T00:46:56.186Z,999.07
2018-04-28T00:47:56.172Z,999.08
2018-04-28T00:48:56.159Z,999.05
2018-04-28T00:49:56.565Z,999.07
2018-04-28T00:50:56.125Z,999.08
2018-04-28T00:51:56.106Z,999.08
2018-04-28T00:52:56.091Z,999.1
2018-04-28T00:53:56.079Z,999.06
2018-04-28T00:54:56.066Z,999.06
2018-04-28T00:55:56.047Z,999.12
2018-04-28T00:56:56.031Z,999.11
2018-04-28T00:57:56.015Z,999.12
2018-04-28T00:58:56.000Z,999.16
2018-04-28T00:59:55.984Z,999.1
2018-04-28T01:00:55.969Z,999.13
2018-04-28T01:01:55.956Z,999.22
2018-04-28T01:02:55.937Z,999.18
2018-04-28T01:03:55.923Z,999.2
2018-04-28T01:04:55.915Z,999.16
2018-04-28T01:05:55.892Z,999.19
2018-04-28T01:06:55.877Z,999.21
2018-04-28T01:07:55.859Z,999.21
2018-04-28T01:08:55.845Z,999.26
2018-04-28T01:09:55.867Z,999.27
2018-04-28T01:10:55.813Z,999.27
2018-04-28T01:11:55.799Z,999.3
2018-04-28T01:12:55.783Z,999.28
2018-04-28T01:13:55.768Z,999.31
2018-04-28T01:14:55.754Z,999.28
2018-04-28T01:15:55.736Z,999.27
2018-04-28T01:16:55.725Z,999.3
2018-04-28T01:17:55.705Z,999.3
2018-04-28T01:18:55.690Z,999.33
2018-04-28T01:19:55.674Z,999.36
2018-04-28T01:20:55.662Z,999.38
2018-04-28T01:21:55.648Z,999.38
2018-04-28T01:22:55.631Z,999.41
2018-04-28T01:23:55.616Z,999.34
2018-04-28T01:24:55.601Z,999.4
2018-04-28T01:25:55.583Z,999.47
2018-04-28T01:26:55.569Z,999.38
2018-04-28T01:27:55.556Z,999.34
2018-04-28T01:28:55.540Z,999.35
2018-04-28T01:29:55.542Z,999.37
2018-04-28T01:30:55.507Z,999.36
2018-04-28T01:31:55.494Z,999.39
2018-04-28T01:32:55.477Z,999.38
2018-04-28T01:33:55.464Z,999.38
2018-04-28T01:34:55.447Z,999.4
2018-04-28T01:35:55.434Z,999.43
2018-04-28T01:36:55.417Z,999.38
2018-04-28T01:37:55.401Z,999.42
2018-04-28T01:38:55.387Z,999.43
2018-04-28T01:39:55.373Z,999.41
2018-04-28T01:40:55.360Z,999.44
2018-04-28T01:41:55.343Z,999.4
2018-04-28T01:42:55.329Z,999.43
2018-04-28T01:43:55.314Z,999.42
2018-04-28T01:44:55.300Z,999.48
2018-04-28T01:45:55.284Z,999.51
2018-04-28T01:46:55.269Z,999.5
2018-04-28T01:47:55.289Z,999.52
2018-04-28T01:48:55.240Z,999.53
2018-04-28T01:49:55.225Z,999.55
2018-04-28T01:50:55.210Z,999.56
2018-04-28T01:51:55.197Z,999.61
2018-04-28T01:52:55.181Z,999.56
2018-04-28T01:53:55.165Z,999.59
2018-04-28T01:54:55.150Z,999.54
2018-04-28T01:55:55.135Z,999.56
2018-04-28T01:56:55.123Z,999.52
2018-04-28T01:57:55.106Z,999.54
2018-04-28T01:58:55.093Z,999.51
2018-04-28T01:59:55.076Z,999.53
2018-04-28T02:00:55.061Z,999.48
2018-04-28T02:01:55.046Z,999.5
2018-04-28T02:02:55.031Z,999.48
2018-04-28T02:03:55.017Z,999.52
2018-04-28T02:04:55.001Z,999.52
2018-04-28T02:05:54.988Z,999.53
2018-04-28T02:06:54.972Z,999.55
2018-04-28T02:07:54.956Z,999.55
2018-04-28T02:08:54.942Z,999.57
2018-04-28T02:09:54.930Z,999.54
2018-04-28T02:10:54.916Z,999.59
2018-04-28T02:11:54.898Z,999.64
2018-04-28T02:12:54.881Z,999.67
2018-04-28T02:13:54.867Z,999.66
2018-04-28T02:14:54.858Z,999.67
2018-04-28T02:15:54.836Z,999.68
2018-04-28T02:16:54.822Z,999.66
2018-04-28T02:17:54.811Z,999.68
2018-04-28T02:18:54.798Z,999.69
2018-04-28T02:19:54.778Z,999.64
2018-04-28T02:20:54.761Z,999.67
2018-04-28T02:21:54.748Z,999.67
2018-04-28T02:22:54.733Z,999.76
2018-04-28T02:23:54.717Z,999.77
2018-04-28T02:24:54.705Z,999.8
2018-04-28T02:25:54.688Z,999.75
2018-04-28T02:26:54.672Z,999.8
2018-04-28T02:27:54.657Z,999.83
2018-04-28T02:28:54.643Z,999.84
2018-04-28T02:29:54.628Z,999.83
2018-04-28T02:30:54.616Z,999.81
2018-04-28T02:31:54.597Z,999.82
2018-04-28T02:32:54.582Z,999.87
2018-04-28T02:33:54.569Z,999.85
2018-04-28T02:34:54.553Z,999.86
2018-04-28T02:35:54.540Z,999.9
2018-04-28T02:36:54.523Z,999.87
2018-04-28T02:37:54.508Z,999.88
2018-04-28T02:38:54.496Z,999.88
2018-04-28T02:39:54.477Z,999.87
2018-04-28T02:40:54.463Z,999.85
2018-04-28T02:41:54.447Z,999.91
2018-04-28T02:42:54.435Z,999.94
2018-04-28T02:43:54.417Z,999.95
2018-04-28T02:44:54.402Z,999.97
2018-04-28T02:45:54.385Z,999.95
2018-04-28T02:46:54.372Z,999.94
2018-04-28T02:47:54.360Z,999.94
2018-04-28T02:48:54.341Z,999.9
2018-04-28T02:49:54.529Z,999.86
2018-04-28T02:50:54.311Z,999.9
2018-04-28T02:51:54.295Z,999.92
2018-04-28T02:52:54.281Z,999.97
2018-04-28T02:53:54.265Z,999.94
2018-04-28T02:54:54.251Z,1000
2018-04-28T02:55:54.237Z,1000
2018-04-28T02:56:54.222Z,1000.02
2018-04-28T02:57:54.207Z,1000.04
2018-04-28T02:58:54.193Z,1000.03
2018-04-28T02:59:54.179Z,1000.05
2018-04-28T03:00:54.160Z,1000.07
2018-04-28T03:01:54.144Z,1000.06
2018-04-28T03:02:54.133Z,1000.03
2018-04-28T03:03:54.115Z,1000.05
2018-04-28T03:04:54.100Z,1000.06
2018-04-28T03:05:54.085Z,1000.06
2018-04-28T03:06:54.069Z,1000.06
2018-04-28T03:07:54.054Z,1000.09
2018-04-28T03:08:54.040Z,1000.05
2018-04-28T03:09:54.026Z,1000.06
2018-04-28T03:10:54.011Z,1000.08
2018-04-28T03:11:53.995Z,1000.05
2018-04-28T03:12:53.979Z,1000.09
2018-04-28T03:13:53.963Z,1000.07
2018-04-28T03:14:53.950Z,1000.1
2018-04-28T03:15:53.932Z,1000.07
2018-04-28T03:16:53.918Z,1000.06
2018-04-28T03:17:53.902Z,1000.03
2018-04-28T03:18:53.888Z,1000.01
2018-04-28T03:19:53.873Z,1000.03
2018-04-28T03:20:53.858Z,1000.02
2018-04-28T03:21:53.844Z,1000.02
2018-04-28T03:22:53.826Z,1000
2018-04-28T03:23:53.835Z,1000.05
2018-04-28T03:24:53.796Z,1000.06
2018-04-28T03:25:53.782Z,1000.05
2018-04-28T03:26:53.767Z,1000.04
2018-04-28T03:27:53.751Z,1000.05
2018-04-28T03:28:53.737Z,1000.05
2018-04-28T03:29:53.720Z,1000.09
2018-04-28T03:30:53.706Z,1000.08
2018-04-28T03:31:53.693Z,1000.06
2018-04-28T03:32:53.673Z,1000.09
2018-04-28T03:33:53.658Z,1000.04
2018-04-28T03:34:53.644Z,1000.05
2018-04-28T03:35:53.628Z,1000.06
2018-04-28T03:36:53.613Z,1000.02
2018-04-28T03:37:53.599Z,999.99
2018-04-28T03:38:53.583Z,999.99
2018-04-28T03:39:53.567Z,1000.02
2018-04-28T03:40:53.550Z,1000.04
2018-04-28T03:41:53.535Z,1000.05
2018-04-28T03:42:53.521Z,1000.03
2018-04-28T03:43:53.504Z,1000.07
2018-04-28T03:44:53.489Z,1000.09
2018-04-28T03:45:53.478Z,1000.08
2018-04-28T03:46:53.460Z,1000.06
2018-04-28T03:47:53.442Z,1000.07
2018-04-28T03:48:53.427Z,1000.07
2018-04-28T03:49:53.414Z,1000.09
2018-04-28T03:50:53.396Z,1000.1
2018-04-28T03:51:53.381Z,1000.15
2018-04-28T03:52:53.367Z,1000.13
2018-04-28T03:53:53.351Z,1000.15
2018-04-28T03:54:53.336Z,1000.1
2018-04-28T03:55:53.320Z,1000.09
2018-04-28T03:56:53.306Z,1000.07
2018-04-28T03:57:53.289Z,1000.06
2018-04-28T03:58:53.274Z,1000.07
2018-04-28T03:59:53.257Z,1000.06
2018-04-28T04:00:53.242Z,1000.03
2018-04-28T04:01:53.230Z,1000.05
2018-04-28T04:02:53.212Z,1000.06
2018-04-28T04:03:53.199Z,1000.11
2018-04-28T04:04:53.180Z,1000.07
2018-04-28T04:05:53.162Z,1000.11
2018-04-28T04:06:53.150Z,1000.08
2018-04-28T04:07:53.134Z,1000.07
2018-04-28T04:08:53.137Z,1000.15
2018-04-28T04:09:53.105Z,1000.12
2018-04-28T04:10:53.087Z,1000.12
2018-04-28T04:11:53.072Z,1000.13
2018-04-28T04:12:53.056Z,1000.12
2018-04-28T04:13:53.041Z,1000.12
2018-04-28T04:14:53.025Z,1000.13
2018-04-28T04:15:53.012Z,1000.1
2018-04-28T04:16:52.993Z,1000.1
2018-04-28T04:17:52.980Z,1000.14
2018-04-28T04:18:52.965Z,1000.18
2018-04-28T04:19:52.949Z,1000.17
2018-04-28T04:20:52.935Z,1000.24
2018-04-28T04:21:52.920Z,1000.24
2018-04-28T04:22:52.901Z,1000.23
2018-04-28T04:23:52.887Z,1000.26
2018-04-28T04:24:52.868Z,1000.29
2018-04-28T04:25:52.854Z,1000.35
2018-04-28T04:26:52.842Z,1000.34
2018-04-28T04:27:52.824Z,1000.32
2018-04-28T04:28:52.810Z,1000.37
2018-04-28T04:29:52.791Z,1000.38
2018-04-28T04:30:52.779Z,1000.4
2018-04-28T04:31:52.774Z,1000.43
2018-04-28T04:32:52.745Z,1000.41
2018-04-28T04:33:52.735Z,1000.45
2018-04-28T04:34:52.719Z,1000.45
2018-04-28T04:35:52.700Z,1000.43
2018-04-28T04:36:52.684Z,1000.45
2018-04-28T04:37:52.668Z,1000.45
2018-04-28T04:38:52.653Z,1000.47
2018-04-28T04:39:52.640Z,1000.49
2018-04-28T04:40:52.621Z,1000.51
2018-04-28T04:41:52.607Z,1000.54
2018-04-28T04:42:52.590Z,1000.53
2018-04-28T04:43:52.577Z,1000.54
2018-04-28T04:44:52.562Z,1000.52
2018-04-28T04:45:52.546Z,1000.55
2018-04-28T04:46:52.530Z,1000.54
2018-04-28T04:47:52.519Z,1000.53
2018-04-28T04:48:52.501Z,1000.61
2018-04-28T04:49:52.685Z,1000.6
2018-04-28T04:50:52.473Z,1000.62
2018-04-28T04:51:52.456Z,1000.6
2018-04-28T04:52:52.438Z,1000.67
2018-04-28T04:53:52.431Z,1000.61
2018-04-28T04:54:52.410Z,1000.66
2018-04-28T04:55:52.392Z,1000.67
2018-04-28T04:56:52.382Z,1000.68
2018-04-28T04:57:52.370Z,1000.66
2018-04-28T04:58:52.347Z,1000.7
2018-04-28T04:59:52.336Z,1000.77
2018-04-28T05:00:52.317Z,1000.79
2018-04-28T05:01:52.302Z,1000.8
2018-04-28T05:02:52.291Z,1000.8
2018-04-28T05:03:52.273Z,1000.82
2018-04-28T05:04:52.259Z,1000.81
2018-04-28T05:05:52.241Z,1000.81
2018-04-28T05:06:52.234Z,1000.8
2018-04-28T05:07:52.210Z,1000.83
2018-04-28T05:08:52.195Z,1000.84
2018-04-28T05:09:52.215Z,1000.89
2018-04-28T05:10:52.173Z,1000.85
2018-04-28T05:11:52.151Z,1000.87
2018-04-28T05:12:52.135Z,1000.89
2018-04-28T05:13:52.120Z,1000.88
2018-04-28T05:14:52.107Z,1000.9
2018-04-28T05:15:52.092Z,1000.88
2018-04-28T05:16:52.074Z,1000.9
2018-04-28T05:17:52.063Z,1000.94
2018-04-28T05:18:52.044Z,1000.89
2018-04-28T05:19:52.035Z,1000.91
2018-04-28T05:20:52.015Z,1000.97
2018-04-28T05:21:51.999Z,1000.9
2018-04-28T05:22:51.984Z,1000.93
2018-04-28T05:23:51.973Z,1000.97
2018-04-28T05:24:51.954Z,1000.97
2018-04-28T05:25:51.952Z,1001.01
2018-04-28T05:26:51.937Z,1001.02
2018-04-28T05:27:51.910Z,1000.96
2018-04-28T05:28:51.896Z,1001.02
2018-04-28T05:29:51.887Z,1001
2018-04-28T05:30:51.866Z,1001.03
2018-04-28T05:31:51.903Z,1001.05
2018-04-28T05:32:51.837Z,1001.04
2018-04-28T05:33:51.825Z,1001.07
2018-04-28T05:34:51.807Z,1001.09
2018-04-28T05:35:51.803Z,1001.06
2018-04-28T05:36:51.779Z,1001.05
2018-04-28T05:37:51.762Z,1001.09
2018-04-28T05:38:51.749Z,1001.1
2018-04-28T05:39:51.735Z,1001.13
2018-04-28T05:40:51.720Z,1001.17
2018-04-28T05:41:51.713Z,1001.17
2018-04-28T05:42:51.698Z,1001.15
2018-04-28T05:43:51.681Z,1001.15
2018-04-28T05:44:51.661Z,1001.16
2018-04-28T05:45:51.654Z,1001.17
2018-04-28T05:46:51.633Z,1001.19
2018-04-28T05:47:51.617Z,1001.19
2018-04-28T05:48:51.606Z,1001.22
2018-04-28T05:49:51.606Z,1001.22
2018-04-28T05:50:51.580Z,1001.3
2018-04-28T05:51:51.564Z,1001.23
2018-04-28T05:52:51.552Z,1001.29
2018-04-28T05:53:51.536Z,1001.3
2018-04-28T05:54:51.532Z,1001.27
2018-04-28T05:55:51.511Z,1001.3
2018-04-28T05:56:51.493Z,1001.32
2018-04-28T05:57:51.535Z,1001.33
2018-04-28T05:58:51.463Z,1001.35
2018-04-28T05:59:51.449Z,1001.38
2018-04-28T06:00:51.436Z,1001.3
2018-04-28T06:01:51.422Z,1001.36
2018-04-28T06:02:51.412Z,1001.36
2018-04-28T06:03:51.404Z,1001.38
2018-04-28T06:04:51.382Z,1001.38
2018-04-28T06:05:51.370Z,1001.41
2018-04-28T06:06:51.408Z,1001.41
2018-04-28T06:07:51.344Z,1001.44
2018-04-28T06:08:51.335Z,1001.45
2018-04-28T06:09:51.315Z,1001.48
2018-04-28T06:10:51.298Z,1001.47
2018-04-28T06:11:51.285Z,1001.49
2018-04-28T06:12:51.273Z,1001.51
2018-04-28T06:13:51.259Z,1001.49
2018-04-28T06:14:51.245Z,1001.51
2018-04-28T06:15:51.232Z,1001.59
2018-04-28T06:16:51.221Z,1001.57
2018-04-28T06:17:51.207Z,1001.6
2018-04-28T06:18:51.200Z,1001.59
2018-04-28T06:19:51.208Z,1001.6
2018-04-28T06:20:51.167Z,1001.63
2018-04-28T06:21:51.152Z,1001.64
2018-04-28T06:22:51.141Z,1001.63
2018-04-28T06:23:51.125Z,1001.63
2018-04-28T06:24:51.111Z,1001.64
2018-04-28T06:25:51.163Z,1001.62
2018-04-28T06:26:51.088Z,1001.59
2018-04-28T06:27:51.072Z,1001.59
2018-04-28T06:28:51.059Z,1001.61
2018-04-28T06:29:51.049Z,1001.61
2018-04-28T06:30:51.034Z,1001.63
2018-04-28T06:31:51.024Z,1001.58
2018-04-28T06:32:51.007Z,1001.65
2018-04-28T06:33:50.995Z,1001.63
2018-04-28T06:34:50.981Z,1001.63
2018-04-28T06:35:51.041Z,1001.69
2018-04-28T06:36:50.956Z,1001.63
2018-04-28T06:37:50.942Z,1001.71
2018-04-28T06:38:50.929Z,1001.67
2018-04-28T06:39:50.916Z,1001.74
2018-04-28T06:40:50.915Z,1001.75
2018-04-28T06:41:50.893Z,1001.78
2018-04-28T06:42:50.878Z,1001.79
2018-04-28T06:43:50.870Z,1001.78
2018-04-28T06:44:50.854Z,1001.74
2018-04-28T06:45:50.844Z,1001.79
2018-04-28T06:46:50.826Z,1001.78
2018-04-28T06:47:50.813Z,1001.78
2018-04-28T06:48:50.799Z,1001.82
2018-04-28T06:49:50.786Z,1001.85
2018-04-28T06:50:50.773Z,1001.82
2018-04-28T06:51:50.760Z,1001.84
2018-04-28T06:52:50.751Z,1001.82
2018-04-28T06:53:50.737Z,1001.84
2018-04-28T06:54:50.720Z,1001.84
2018-04-28T06:55:50.708Z,1001.84
2018-04-28T06:56:50.697Z,1001.81
2018-04-28T06:57:50.682Z,1001.91
2018-04-28T06:58:50.671Z,1001.85
2018-04-28T06:59:50.657Z,1001.9
2018-04-28T07:00:50.644Z,1001.91
2018-04-28T07:01:50.631Z,1001.88
2018-04-28T07:02:50.622Z,1001.91
2018-04-28T07:03:50.606Z,1001.88
2018-04-28T07:04:50.592Z,1001.85
2018-04-28T07:05:50.581Z,1001.9
2018-04-28T07:06:50.569Z,1001.85
2018-04-28T07:07:50.553Z,1001.82
2018-04-28T07:08:50.540Z,1001.86
2018-04-28T07:09:50.526Z,1001.89
2018-04-28T07:10:50.535Z,1001.85
2018-04-28T07:11:50.502Z,1001.84
2018-04-28T07:12:50.488Z,1001.89
2018-04-28T07:13:50.479Z,1001.89
2018-04-28T07:14:50.468Z,1001.91
2018-04-28T07:15:50.452Z,1001.94
2018-04-28T07:16:50.439Z,1001.92
2018-04-28T07:17:50.434Z,1001.93
2018-04-28T07:18:50.414Z,1001.95
2018-04-28T07:19:50.399Z,1001.92
2018-04-28T07:20:50.394Z,1001.87
2018-04-28T07:21:50.377Z,1001.91
2018-04-28T07:22:50.363Z,1001.94
2018-04-28T07:23:50.351Z,1001.97
2018-04-28T07:24:50.337Z,1001.98
2018-04-28T07:25:50.323Z,1002.03
2018-04-28T07:26:50.315Z,1002.02
2018-04-28T07:27:50.304Z,1001.99
2018-04-28T07:28:50.288Z,1002.02
2018-04-28T07:29:50.276Z,1002.08
2018-04-28T07:30:50.260Z,1002.06
2018-04-28T07:31:50.248Z,1002.12
2018-04-28T07:32:50.237Z,1002.05
2018-04-28T07:33:50.223Z,1002.08
2018-04-28T07:34:50.212Z,1002.08
2018-04-28T07:35:50.197Z,1002.09
2018-04-28T07:36:50.185Z,1002.09
2018-04-28T07:37:50.174Z,1002.13
2018-04-28T07:38:50.162Z,1002.15
2018-04-28T07:39:50.151Z,1002.13
2018-04-28T07:40:50.139Z,1002.12
2018-04-28T07:41:50.128Z,1002.12
2018-04-28T07:42:50.116Z,1002.15
2018-04-28T07:43:50.104Z,1002.19
2018-04-28T07:44:50.095Z,1002.19
2018-04-28T07:45:50.080Z,1002.15
2018-04-28T07:46:50.069Z,1002.15
2018-04-28T07:47:50.057Z,1002.19
2018-04-28T07:48:50.046Z,1002.18
2018-04-28T07:49:50.037Z,1002.17
2018-04-28T07:50:50.032Z,1002.21
2018-04-28T07:51:50.012Z,1002.18
2018-04-28T07:52:50.001Z,1002.2
2018-04-28T07:53:49.986Z,1002.21
2018-04-28T07:54:49.974Z,1002.19
2018-04-28T07:55:49.964Z,1002.2
2018-04-28T07:56:49.953Z,1002.23
2018-04-28T07:57:49.940Z,1002.3
2018-04-28T07:58:49.931Z,1002.28
2018-04-28T07:59:49.919Z,1002.27
2018-04-28T08:00:49.907Z,1002.29
2018-04-28T08:01:49.893Z,1002.29
2018-04-28T08:02:49.882Z,1002.31
2018-04-28T08:03:49.868Z,1002.31
2018-04-28T08:04:49.869Z,1002.33
2018-04-28T08:05:49.856Z,1002.32
2018-04-28T08:06:49.835Z,1002.34
2018-04-28T08:07:49.825Z,1002.39
2018-04-28T08:08:49.813Z,1002.38
2018-04-28T08:09:49.806Z,1002.42
2018-04-28T08:10:49.792Z,1002.43
2018-04-28T08:11:49.775Z,1002.42
2018-04-28T08:12:49.768Z,1002.39
2018-04-28T08:13:49.754Z,1002.42
2018-04-28T08:14:49.748Z,1002.41
2018-04-28T08:15:49.730Z,1002.44
2018-04-28T08:16:49.720Z,1002.5
2018-04-28T08:17:49.708Z,1002.46
2018-04-28T08:18:49.699Z,1002.47
2018-04-28T08:19:49.687Z,1002.51
2018-04-28T08:20:49.684Z,1002.43
2018-04-28T08:21:49.664Z,1002.45
2018-04-28T08:22:49.655Z,1002.47
2018-04-28T08:23:49.646Z,1002.45
2018-04-28T08:24:49.633Z,1002.44
2018-04-28T08:25:49.620Z,1002.51
2018-04-28T08:26:49.612Z,1002.42
2018-04-28T08:27:49.600Z,1002.47
2018-04-28T08:28:49.588Z,1002.46
2018-04-28T08:29:49.579Z,1002.48
2018-04-28T08:30:49.568Z,1002.43
2018-04-28T08:31:49.564Z,1002.41
2018-04-28T08:32:49.546Z,1002.45
2018-04-28T08:33:49.537Z,1002.43
2018-04-28T08:34:49.527Z,1002.44
2018-04-28T08:35:49.515Z,1002.45
2018-04-28T08:36:49.515Z,1002.45
2018-04-28T08:37:49.496Z,1002.46
2018-04-28T08:38:49.484Z,1002.48
2018-04-28T08:39:49.473Z,1002.44
2018-04-28T08:40:49.471Z,1002.5
2018-04-28T08:41:49.453Z,1002.52
2018-04-28T08:42:49.441Z,1002.49
2018-04-28T08:43:49.431Z,1002.51
2018-04-28T08:44:49.420Z,1002.52
2018-04-28T08:45:49.412Z,1002.52
2018-04-28T08:46:49.399Z,1002.47
2018-04-28T08:47:49.387Z,1002.47
2018-04-28T08:48:49.377Z,1002.45
2018-04-28T08:49:49.366Z,1002.52
2018-04-28T08:50:49.357Z,1002.5
2018-04-28T08:51:49.344Z,1002.58
2018-04-28T08:52:49.336Z,1002.6
2018-04-28T08:53:49.539Z,1002.54
2018-04-28T08:54:49.314Z,1002.6
2018-04-28T08:55:49.305Z,1002.54
2018-04-28T08:56:49.296Z,1002.56
2018-04-28T08:57:49.281Z,1002.56
2018-04-28T08:58:49.271Z,1002.52
2018-04-28T08:59:49.262Z,1002.51
2018-04-28T09:00:49.259Z,1002.6
2018-04-28T09:01:49.242Z,1002.53
2018-04-28T09:02:49.232Z,1002.54
2018-04-28T09:03:49.279Z,1002.5
2018-04-28T09:04:49.209Z,1002.51
2018-04-28T09:05:49.199Z,1002.56
2018-04-28T09:06:49.190Z,1002.57
2018-04-28T09:07:49.181Z,1002.46
2018-04-28T09:08:49.170Z,1002.5
2018-04-28T09:09:49.161Z,1002.47
2018-04-28T09:10:49.150Z,1002.56
2018-04-28T09:11:49.141Z,1002.47
2018-04-28T09:12:49.130Z,1002.5
2018-04-28T09:13:49.122Z,1002.56
2018-04-28T09:14:49.113Z,1002.55
2018-04-28T09:15:49.105Z,1002.52
2018-04-28T09:16:49.093Z,1002.49
2018-04-28T09:17:49.085Z,1002.53
2018-04-28T09:18:49.075Z,1002.54
2018-04-28T09:19:49.064Z,1002.52
2018-04-28T09:20:49.056Z,1002.54
2018-04-28T09:21:49.047Z,1002.56
2018-04-28T09:22:49.039Z,1002.56
2018-04-28T09:23:49.029Z,1002.56
2018-04-28T09:24:49.020Z,1002.58
2018-04-28T09:25:49.010Z,1002.59
2018-04-28T09:26:49.003Z,1002.58
2018-04-28T09:27:48.993Z,1002.56
2018-04-28T09:28:48.985Z,1002.63
2018-04-28T09:29:48.973Z,1002.61
2018-04-28T09:30:48.967Z,1002.57
2018-04-28T09:31:48.960Z,1002.54
2018-04-28T09:32:48.944Z,1002.58
2018-04-28T09:33:48.934Z,1002.66
2018-04-28T09:34:48.926Z,1002.63
2018-04-28T09:35:48.916Z,1002.66
2018-04-28T09:36:48.908Z,1002.62
2018-04-28T09:37:48.899Z,1002.67
2018-04-28T09:38:48.888Z,1002.68
2018-04-28T09:39:48.881Z,1002.71
2018-04-28T09:40:48.877Z,1002.71
2018-04-28T09:41:48.861Z,1002.66
2018-04-28T09:42:48.851Z,1002.71
2018-04-28T09:43:48.842Z,1002.67
2018-04-28T09:44:48.833Z,1002.68
2018-04-28T09:45:48.825Z,1002.69
2018-04-28T09:46:48.823Z,1002.66
2018-04-28T09:47:48.806Z,1002.68
2018-04-28T09:48:48.802Z,1002.71
2018-04-28T09:49:48.785Z,1002.63
2018-04-28T09:50:48.776Z,1002.7
2018-04-28T09:51:48.767Z,1002.75
2018-04-28T09:52:48.757Z,1002.75
2018-04-28T09:53:48.751Z,1002.68
2018-04-28T09:54:48.738Z,1002.72
2018-04-28T09:55:48.729Z,1002.74
2018-04-28T09:56:48.724Z,1002.69
2018-04-28T09:57:48.709Z,1002.68
2018-04-28T09:58:48.703Z,1002.69
2018-04-28T09:59:48.690Z,1002.7
2018-04-28T10:00:48.678Z,1002.66
2018-04-28T10:01:48.673Z,1002.7
2018-04-28T10:02:48.666Z,1002.71
2018-04-28T10:03:48.652Z,1002.63
2018-04-28T10:04:48.639Z,1002.65
2018-04-28T10:05:48.703Z,1002.68
2018-04-28T10:06:48.620Z,1002.73
2018-04-28T10:07:48.614Z,1002.7
2018-04-28T10:08:48.599Z,1002.71
2018-04-28T10:09:48.590Z,1002.71
2018-04-28T10:10:48.579Z,1002.75
2018-04-28T10:11:48.572Z,1002.73
2018-04-28T10:12:48.602Z,1002.71
2018-04-28T10:13:48.552Z,1002.78
2018-04-28T10:14:48.537Z,1002.72
2018-04-28T10:15:48.526Z,1002.76
2018-04-28T10:16:48.518Z,1002.78
2018-04-28T10:17:48.508Z,1002.76
2018-04-28T10:18:48.500Z,1002.75
2018-04-28T10:19:48.486Z,1002.71
2018-04-28T10:20:48.492Z,1002.71
2018-04-28T10:21:48.486Z,1002.7
2018-04-28T10:22:48.484Z,1002.69
2018-04-28T10:23:48.466Z,1002.7
2018-04-28T10:24:48.478Z,1002.67
2018-04-28T10:25:48.431Z,1002.66
2018-04-28T10:26:48.418Z,1002.7
2018-04-28T10:27:48.720Z,1002.71
2018-04-28T10:28:48.401Z,1002.71
2018-04-28T10:29:48.390Z,1002.68
2018-04-28T10:30:48.428Z,1002.66
2018-04-28T10:31:48.371Z,1002.66
2018-04-28T10:32:48.365Z,1002.66
2018-04-28T10:33:48.355Z,1002.65
2018-04-28T10:34:48.341Z,1002.68
2018-04-28T10:35:48.333Z,1002.59
2018-04-28T10:36:48.545Z,1002.71
2018-04-28T10:37:48.346Z,1002.62
2018-04-28T10:38:48.308Z,1002.63
2018-04-28T10:39:48.295Z,1002.63
2018-04-28T10:40:48.284Z,1002.64
2018-04-28T10:41:48.278Z,1002.61
2018-04-28T10:42:48.268Z,1002.62
2018-04-28T10:43:48.257Z,1002.6
2018-04-28T10:44:48.247Z,1002.62
2018-04-28T10:45:48.239Z,1002.61
2018-04-28T10:46:48.229Z,1002.6
2018-04-28T10:47:48.219Z,1002.63
2018-04-28T10:48:48.395Z,1002.61
2018-04-28T10:49:48.371Z,1002.61
2018-04-28T10:50:48.208Z,1002.63
2018-04-28T10:51:48.182Z,1002.67
2018-04-28T10:52:48.169Z,1002.61
2018-04-28T10:53:48.209Z,1002.67
2018-04-28T10:54:48.200Z,1002.65
2018-04-28T10:55:48.141Z,1002.64
2018-04-28T10:56:48.130Z,1002.65
2018-04-28T10:57:48.122Z,1002.58
2018-04-28T10:58:48.112Z,1002.62
2018-04-28T10:59:48.104Z,1002.65
2018-04-28T11:00:48.091Z,1002.66
2018-04-28T11:01:48.081Z,1002.68
2018-04-28T11:02:48.072Z,1002.65
2018-04-28T11:03:48.060Z,1002.66
2018-04-28T11:04:48.053Z,1002.7
2018-04-28T11:05:48.043Z,1002.64
2018-04-28T11:06:48.034Z,1002.68
2018-04-28T11:07:48.021Z,1002.65
2018-04-28T11:08:48.013Z,1002.76
2018-04-28T11:09:47.999Z,1002.76
2018-04-28T11:10:47.991Z,1002.79
2018-04-28T11:11:47.984Z,1002.78
2018-04-28T11:12:47.973Z,1002.75
2018-04-28T11:13:47.965Z,1002.74
2018-04-28T11:14:47.957Z,1002.76
2018-04-28T11:15:47.947Z,1002.76
2018-04-28T11:16:47.939Z,1002.83
2018-04-28T11:17:47.925Z,1002.8
2018-04-28T11:18:47.916Z,1002.76
2018-04-28T11:19:48.027Z,1002.81
2018-04-28T11:20:47.898Z,1002.86
2018-04-28T11:21:47.892Z,1002.83
2018-04-28T11:22:47.881Z,1002.86
2018-04-28T11:23:47.872Z,1002.88
2018-04-28T11:24:47.862Z,1002.86
2018-04-28T11:25:47.911Z,1002.84
2018-04-28T11:26:47.849Z,1002.87
2018-04-28T11:27:47.839Z,1002.92
2018-04-28T11:28:47.832Z,1002.89
2018-04-28T11:29:47.819Z,1002.87
2018-04-28T11:30:47.811Z,1002.86
2018-04-28T11:31:47.805Z,1002.9
2018-04-28T11:32:47.864Z,1002.89
2018-04-28T11:33:47.787Z,1002.93
2018-04-28T11:34:47.779Z,1002.88
2018-04-28T11:35:47.769Z,1002.82
2018-04-28T11:36:47.765Z,1002.87
2018-04-28T11:37:47.757Z,1002.86
2018-04-28T11:38:47.746Z,1002.85
2018-04-28T11:39:47.736Z,1002.86
2018-04-28T11:40:47.729Z,1002.85
2018-04-28T11:41:47.719Z,1002.82
2018-04-28T11:42:47.710Z,1002.88
2018-04-28T11:43:47.702Z,1002.85
2018-04-28T11:44:47.704Z,1002.89
2018-04-28T11:45:47.683Z,1002.9
2018-04-28T11:46:47.677Z,1002.9
2018-04-28T11:47:47.673Z,1002.86
2018-04-28T11:48:47.671Z,1002.85
2018-04-28T11:49:47.655Z,1002.82
2018-04-28T11:50:47.644Z,1002.75
2018-04-28T11:51:47.633Z,1002.78
2018-04-28T11:52:47.623Z,1002.86
2018-04-28T11:53:47.614Z,1002.94
2018-04-28T11:54:47.813Z,1002.87
2018-04-28T11:55:47.626Z,1002.76
2018-04-28T11:56:47.595Z,1002.81
2018-04-28T11:57:47.584Z,1002.77
2018-04-28T11:58:47.656Z,1002.77
2018-04-28T11:59:47.575Z,1002.73
2018-04-28T12:00:47.574Z,1002.72
2018-04-28T12:01:47.564Z,1002.72
2018-04-28T12:02:47.555Z,1002.82
2018-04-28T12:03:47.543Z,1002.89
2018-04-28T12:04:47.548Z,1002.76
2018-04-28T12:05:47.618Z,1002.8
2018-04-28T12:06:47.525Z,1002.76
2018-04-28T12:07:47.512Z,1002.78
2018-04-28T12:08:47.509Z,1002.81
2018-04-28T12:09:47.499Z,1002.87
2018-04-28T12:10:47.500Z,1002.88
2018-04-28T12:11:47.489Z,1002.82
2018-04-28T12:12:47.486Z,1002.82
2018-04-28T12:13:47.491Z,1003.01